createdAt,value
2018-10-04T00:00:29.527Z,0.00
2018-10-04T00:01:29.504Z,0.00
2018-10-04T00:02:29.485Z,0.00
2018-10-04T00:03:29.464Z,0.00
2018-10-04T00:04:29.445Z,0.00
2018-10-04T00:05:29.423Z,0.00
2018-10-04T00:06:29.399Z,0.00
2018-10-04T00:07:29.378Z,0.00
2018-10-04T00:08:29.364Z,0.00
2018-10-04T00:09:29.337Z,0.00
2018-10-04T00:10:29.316Z,0.00
2018-10-04T00:11:29.295Z,0.00
2018-10-04T00:12:29.273Z,0.00
2018-10-04T00:13:29.253Z,0.00
2018-10-04T00:14:29.231Z,0.00
2018-10-04T00:15:29.210Z,0.00
2018-10-04T00:16:29.189Z,0.00
2018-10-04T00:17:29.168Z,0.00
2018-10-04T00:18:29.146Z,0.00
2018-10-04T00:19:29.126Z,0.00
2018-10-04T00:20:29.106Z,0.00
2018-10-04T00:21:29.083Z,0.00
2018-10-04T00:22:29.062Z,0.00
2018-10-04T00:23:29.042Z,0.00
2018-10-04T00:24:29.021Z,0.00
2018-10-04T00:25:29.000Z,0.00
2018-10-04T00:26:28.980Z,0.00
2018-10-04T00:27:28.957Z,0.00
2018-10-04T00:28:28.938Z,0.00
2018-10-04T00:29:28.936Z,0.00
2018-10-04T00:30:28.895Z,0.00
2018-10-04T00:31:28.873Z,0.00
2018-10-04T00:32:28.853Z,0.00
2018-10-04T00:33:28.831Z,0.00
2018-10-04T00:34:28.812Z,0.00
2018-10-04T00:35:28.792Z,0.00
2018-10-04T00:36:28.773Z,0.00
2018-10-04T00:37:28.748Z,0.00
2018-10-04T00:38:28.733Z,0.00
2018-10-04T00:39:28.706Z,0.00
2018-10-04T00:40:28.683Z,0.00
2018-10-04T00:41:28.662Z,0.00
2018-10-04T00:42:28.642Z,0.00
2018-10-04T00:43:28.621Z,0.00
2018-10-04T00:44:28.600Z,0.00
2018-10-04T00:45:28.580Z,0.00
2018-10-04T00:46:28.561Z,0.00
2018-10-04T00:47:28.539Z,0.00
2018-10-04T00:48:28.520Z,0.00
2018-10-04T00:49:28.495Z,0.00
2018-10-04T00:50:28.472Z,0.00
2018-10-04T00:51:28.454Z,0.00
2018-10-04T00:52:28.432Z,0.00
2018-10-04T00:53:28.411Z,0.00
2018-10-04T00:54:28.389Z,0.00
2018-10-04T00:55:28.368Z,0.00
2018-10-04T00:56:28.359Z,0.00
2018-10-04T00:57:28.325Z,0.00
2018-10-04T00:58:28.305Z,0.00
2018-10-04T00:59:28.285Z,0.00
2018-10-04T01:00:28.263Z,0.00
2018-10-04T01:01:28.242Z,0.00
2018-10-04T01:02:28.222Z,0.00
2018-10-04T01:03:28.204Z,0.00
2018-10-04T01:04:28.179Z,0.00
2018-10-04T01:05:28.171Z,0.00
2018-10-04T01:06:28.156Z,0.00
2018-10-04T01:07:28.136Z,0.00
2018-10-04T01:08:28.096Z,0.00
2018-10-04T01:09:28.079Z,0.00
2018-10-04T01:10:28.055Z,0.00
2018-10-04T01:11:28.034Z,0.00
2018-10-04T01:12:28.014Z,0.00
2018-10-04T01:13:27.989Z,0.00
2018-10-04T01:14:27.969Z,0.00
2018-10-04T01:15:27.948Z,0.00
2018-10-04T01:16:27.928Z,0.00
2018-10-04T01:17:27.906Z,0.00
2018-10-04T01:18:27.886Z,0.00
2018-10-04T01:19:27.863Z,0.00
2018-10-04T01:20:27.845Z,0.00
2018-10-04T01:21:27.822Z,0.00
2018-10-04T01:22:27.800Z,0.00
2018-10-04T01:23:27.781Z,0.00
2018-10-04T01:24:27.759Z,0.00
2018-10-04T01:25:27.738Z,0.00
2018-10-04T01:26:27.716Z,0.00
2018-10-04T01:27:27.696Z,0.00
2018-10-04T01:28:27.674Z,0.00
2018-10-04T01:29:27.657Z,0.00
2018-10-04T01:30:27.635Z,0.00
2018-10-04T01:31:27.655Z,0.00
2018-10-04T01:32:27.592Z,0.00
2018-10-04T01:33:27.575Z,0.00
2018-10-04T01:34:27.548Z,0.00
2018-10-04T01:35:27.526Z,0.00
2018-10-04T01:36:27.533Z,0.00
2018-10-04T01:37:27.485Z,0.00
2018-10-04T01:38:27.465Z,0.00
2018-10-04T01:39:27.445Z,0.00
2018-10-04T01:40:27.422Z,0.00
2018-10-04T01:41:27.401Z,0.00
2018-10-04T01:42:27.384Z,0.00
2018-10-04T01:43:27.360Z,0.00
2018-10-04T01:44:27.337Z,0.00
2018-10-04T01:45:27.319Z,0.00
2018-10-04T01:46:27.297Z,0.00
2018-10-04T01:47:27.276Z,0.00
2018-10-04T01:48:27.255Z,0.00
2018-10-04T01:49:27.232Z,0.00
2018-10-04T01:50:27.212Z,0.00
2018-10-04T01:51:27.189Z,0.00
2018-10-04T01:52:27.169Z,0.00
2018-10-04T01:53:27.148Z,0.00
2018-10-04T01:54:27.127Z,0.00
2018-10-04T01:55:27.112Z,0.00
2018-10-04T01:56:27.090Z,0.00
2018-10-04T01:57:27.064Z,0.00
2018-10-04T01:58:27.045Z,0.00
2018-10-04T01:59:27.023Z,0.00
2018-10-04T02:00:27.001Z,0.00
2018-10-04T02:01:26.977Z,0.00
2018-10-04T02:02:26.956Z,0.00
2018-10-04T02:03:26.937Z,0.00
2018-10-04T02:04:26.916Z,0.00
2018-10-04T02:05:26.893Z,0.00
2018-10-04T02:06:26.873Z,0.00
2018-10-04T02:07:26.855Z,0.00
2018-10-04T02:08:26.831Z,0.00
2018-10-04T02:09:26.810Z,0.00
2018-10-04T02:10:26.788Z,0.00
2018-10-04T02:11:26.769Z,0.00
2018-10-04T02:12:26.746Z,0.00
2018-10-04T02:13:26.725Z,0.00
2018-10-04T02:14:26.705Z,0.00
2018-10-04T02:15:26.683Z,0.00
2018-10-04T02:16:26.662Z,0.00
2018-10-04T02:17:26.642Z,0.00
2018-10-04T02:18:26.622Z,0.00
2018-10-04T02:19:26.603Z,0.00
2018-10-04T02:20:26.577Z,0.00
2018-10-04T02:21:26.557Z,0.00
2018-10-04T02:22:26.534Z,0.00
2018-10-04T02:23:26.516Z,0.00
2018-10-04T02:24:26.495Z,0.00
2018-10-04T02:25:26.472Z,0.00
2018-10-04T02:26:26.452Z,0.00
2018-10-04T02:27:26.429Z,0.00
2018-10-04T02:28:26.409Z,0.00
2018-10-04T02:29:26.389Z,0.00
2018-10-04T02:30:26.368Z,0.00
2018-10-04T02:31:26.345Z,0.00
2018-10-04T02:32:26.327Z,0.00
2018-10-04T02:33:26.301Z,0.00
2018-10-04T02:34:26.283Z,0.00
2018-10-04T02:35:26.264Z,0.00
2018-10-04T02:36:26.242Z,0.00
2018-10-04T02:37:26.220Z,0.00
2018-10-04T02:38:26.197Z,0.00
2018-10-04T02:39:26.178Z,0.00
2018-10-04T02:40:26.158Z,0.00
2018-10-04T02:41:26.133Z,0.00
2018-10-04T02:42:26.120Z,0.00
2018-10-04T02:43:26.093Z,0.00
2018-10-04T02:44:26.072Z,0.00
2018-10-04T02:45:26.052Z,0.00
2018-10-04T02:46:26.028Z,0.00
2018-10-04T02:47:26.022Z,0.00
2018-10-04T02:48:25.987Z,0.00
2018-10-04T02:49:25.966Z,0.00
2018-10-04T02:50:25.949Z,0.00
2018-10-04T02:51:25.923Z,0.00
2018-10-04T02:52:25.902Z,0.00
2018-10-04T02:53:25.882Z,0.00
2018-10-04T02:54:25.866Z,0.00
2018-10-04T02:55:25.843Z,0.00
2018-10-04T02:56:25.817Z,0.00
2018-10-04T02:57:25.796Z,0.00
2018-10-04T02:58:25.775Z,0.00
2018-10-04T02:59:25.753Z,0.00
2018-10-04T03:00:25.734Z,0.00
2018-10-04T03:01:25.715Z,0.00
2018-10-04T03:02:25.690Z,0.00
2018-10-04T03:03:25.673Z,0.00
2018-10-04T03:04:25.661Z,0.00
2018-10-04T03:05:25.626Z,0.00
2018-10-04T03:06:25.608Z,0.00
2018-10-04T03:07:25.584Z,0.00
2018-10-04T03:08:25.565Z,0.00
2018-10-04T03:09:25.542Z,0.00
2018-10-04T03:10:25.527Z,0.00
2018-10-04T03:11:25.500Z,0.00
2018-10-04T03:12:25.500Z,0.00
2018-10-04T03:13:25.458Z,0.00
2018-10-04T03:14:25.437Z,0.00
2018-10-04T03:15:25.417Z,0.00
2018-10-04T03:16:25.394Z,0.00
2018-10-04T03:17:25.372Z,0.00
2018-10-04T03:18:25.352Z,0.00
2018-10-04T03:19:25.331Z,0.00
2018-10-04T03:20:25.310Z,0.00
2018-10-04T03:21:25.341Z,0.00
2018-10-04T03:22:25.271Z,0.00
2018-10-04T03:23:25.250Z,0.00
2018-10-04T03:24:25.227Z,0.00
2018-10-04T03:25:25.203Z,0.00
2018-10-04T03:26:25.182Z,0.00
2018-10-04T03:27:25.165Z,0.00
2018-10-04T03:28:25.143Z,0.00
2018-10-04T03:29:25.123Z,0.00
2018-10-04T03:30:25.121Z,0.00
2018-10-04T03:31:25.077Z,0.00
2018-10-04T03:32:25.056Z,0.00
2018-10-04T03:33:25.034Z,0.00
2018-10-04T03:34:25.013Z,0.00
2018-10-04T03:35:24.992Z,0.00
2018-10-04T03:36:24.976Z,0.00
2018-10-04T03:37:24.950Z,0.00
2018-10-04T03:38:24.931Z,0.00
2018-10-04T03:39:24.908Z,0.00
2018-10-04T03:40:24.887Z,0.00
2018-10-04T03:41:24.865Z,0.00
2018-10-04T03:42:24.843Z,0.00
2018-10-04T03:43:24.822Z,0.00
2018-10-04T03:44:24.885Z,0.00
2018-10-04T03:45:24.781Z,0.00
2018-10-04T03:46:24.759Z,0.00
2018-10-04T03:47:24.739Z,0.00
2018-10-04T03:48:24.719Z,0.00
2018-10-04T03:49:24.704Z,0.00
2018-10-04T03:50:24.674Z,0.00
2018-10-04T03:51:24.653Z,0.00
2018-10-04T03:52:24.633Z,0.00
2018-10-04T03:53:24.611Z,0.00
2018-10-04T03:54:24.590Z,0.00
2018-10-04T03:55:24.569Z,0.00
2018-10-04T03:56:24.548Z,0.00
2018-10-04T03:57:24.527Z,0.00
2018-10-04T03:58:24.520Z,0.00
2018-10-04T03:59:24.485Z,0.00
2018-10-04T04:00:24.465Z,0.00
2018-10-04T04:01:24.444Z,0.00
2018-10-04T04:02:24.428Z,0.00
2018-10-04T04:03:24.401Z,0.00
2018-10-04T04:04:24.382Z,0.00
2018-10-04T04:05:24.358Z,0.00
2018-10-04T04:06:24.340Z,0.00
2018-10-04T04:07:24.317Z,0.00
2018-10-04T04:08:24.302Z,0.00
2018-10-04T04:09:24.280Z,0.00
2018-10-04T04:10:24.255Z,0.00
2018-10-04T04:11:24.233Z,0.00
2018-10-04T04:12:24.213Z,0.00
2018-10-04T04:13:24.191Z,0.00
2018-10-04T04:14:24.171Z,0.00
2018-10-04T04:15:24.157Z,0.00
2018-10-04T04:16:24.129Z,0.00
2018-10-04T04:17:24.109Z,0.00
2018-10-04T04:18:24.086Z,0.00
2018-10-04T04:19:24.071Z,0.00
2018-10-04T04:20:24.088Z,0.00
2018-10-04T04:21:24.026Z,0.00
2018-10-04T04:22:24.100Z,0.00
2018-10-04T04:23:23.983Z,0.00
2018-10-04T04:24:23.994Z,0.00
2018-10-04T04:25:23.949Z,0.00
2018-10-04T04:26:23.923Z,0.00
2018-10-04T04:27:23.899Z,0.00
2018-10-04T04:28:23.880Z,0.00
2018-10-04T04:29:23.856Z,0.00
2018-10-04T04:30:23.836Z,0.00
2018-10-04T04:31:23.816Z,0.00
2018-10-04T04:32:23.795Z,0.00
2018-10-04T04:33:23.778Z,0.00
2018-10-04T04:34:23.755Z,0.00
2018-10-04T04:35:23.735Z,0.00
2018-10-04T04:36:23.711Z,0.00
2018-10-04T04:37:23.689Z,0.00
2018-10-04T04:38:23.670Z,0.00
2018-10-04T04:39:23.650Z,0.00
2018-10-04T04:40:23.628Z,0.00
2018-10-04T04:41:23.605Z,0.00
2018-10-04T04:42:23.586Z,0.00
2018-10-04T04:43:23.568Z,0.00
2018-10-04T04:44:23.545Z,0.00
2018-10-04T04:45:23.526Z,0.00
2018-10-04T04:46:23.534Z,0.00
2018-10-04T04:47:23.484Z,0.00
2018-10-04T04:48:23.461Z,0.00
2018-10-04T04:49:23.468Z,0.00
2018-10-04T04:50:23.418Z,0.00
2018-10-04T04:51:23.398Z,0.00
2018-10-04T04:52:23.381Z,0.00
2018-10-04T04:53:23.356Z,0.00
2018-10-04T04:54:23.335Z,0.00
2018-10-04T04:55:23.313Z,0.00
2018-10-04T04:56:23.294Z,0.00
2018-10-04T04:57:23.276Z,0.00
2018-10-04T04:58:23.253Z,0.00
2018-10-04T04:59:23.233Z,0.00
2018-10-04T05:00:23.216Z,0.00
2018-10-04T05:01:23.188Z,0.00
2018-10-04T05:02:23.168Z,0.00
2018-10-04T05:03:23.146Z,0.00
2018-10-04T05:04:23.126Z,0.00
2018-10-04T05:05:23.103Z,0.00
2018-10-04T05:06:23.134Z,0.00
2018-10-04T05:07:23.062Z,0.00
2018-10-04T05:08:23.050Z,0.00
2018-10-04T05:09:23.021Z,0.00
2018-10-04T05:10:22.998Z,0.00
2018-10-04T05:11:22.979Z,0.00
2018-10-04T05:12:22.958Z,0.00
2018-10-04T05:13:22.942Z,0.00
2018-10-04T05:14:22.916Z,0.00
2018-10-04T05:15:22.899Z,0.00
2018-10-04T05:16:22.877Z,0.00
2018-10-04T05:17:22.854Z,0.00
2018-10-04T05:18:22.832Z,0.00
2018-10-04T05:19:22.814Z,0.00
2018-10-04T05:20:22.791Z,0.00
2018-10-04T05:21:22.769Z,0.00
2018-10-04T05:22:22.884Z,0.00
2018-10-04T05:23:22.730Z,0.00
2018-10-04T05:24:22.708Z,0.00
2018-10-04T05:25:22.685Z,0.00
2018-10-04T05:26:22.664Z,0.00
2018-10-04T05:27:22.644Z,0.00
2018-10-04T05:28:22.632Z,0.00
2018-10-04T05:29:22.603Z,0.00
2018-10-04T05:30:22.582Z,0.00
2018-10-04T05:31:22.566Z,0.00
2018-10-04T05:32:22.542Z,0.00
2018-10-04T05:33:22.517Z,0.00
2018-10-04T05:34:22.498Z,0.00
2018-10-04T05:35:22.475Z,0.00
2018-10-04T05:36:22.454Z,0.00
2018-10-04T05:37:22.480Z,0.00
2018-10-04T05:38:22.467Z,0.00
2018-10-04T05:39:22.400Z,0.00
2018-10-04T05:40:22.375Z,0.00
2018-10-04T05:41:22.405Z,0.00
2018-10-04T05:42:22.328Z,0.00
2018-10-04T05:43:22.310Z,0.00
2018-10-04T05:44:22.288Z,0.00
2018-10-04T05:45:22.346Z,0.00
2018-10-04T05:46:22.244Z,0.00
2018-10-04T05:47:22.223Z,0.00
2018-10-04T05:48:22.203Z,0.00
2018-10-04T05:49:22.182Z,0.00
2018-10-04T05:50:22.163Z,0.00
2018-10-04T05:51:22.143Z,0.00
2018-10-04T05:52:22.119Z,0.00
2018-10-04T05:53:22.108Z,0.00
2018-10-04T05:54:22.082Z,0.00
2018-10-04T05:55:22.056Z,0.00
2018-10-04T05:56:22.035Z,4.00
2018-10-04T05:57:22.014Z,4.00
2018-10-04T05:58:21.994Z,4.00
2018-10-04T05:59:21.991Z,4.00
2018-10-04T06:00:21.954Z,4.00
2018-10-04T06:01:21.930Z,4.00
2018-10-04T06:02:21.910Z,0.00
2018-10-04T06:03:21.891Z,0.00
2018-10-04T06:04:21.869Z,0.00
2018-10-04T06:05:21.911Z,0.00
2018-10-04T06:06:21.843Z,0.00
2018-10-04T06:07:21.806Z,0.00
2018-10-04T06:08:21.783Z,0.00
2018-10-04T06:09:21.762Z,0.00
2018-10-04T06:10:21.742Z,4.00
2018-10-04T06:11:21.721Z,4.00
2018-10-04T06:12:21.700Z,4.00
2018-10-04T06:13:21.677Z,4.00
2018-10-04T06:14:21.657Z,4.00
2018-10-04T06:15:21.682Z,0.00
2018-10-04T06:16:21.616Z,0.00
2018-10-04T06:17:21.594Z,4.00
2018-10-04T06:18:21.575Z,4.00
2018-10-04T06:19:21.552Z,4.00
2018-10-04T06:20:21.533Z,4.00
2018-10-04T06:21:21.509Z,4.00
2018-10-04T06:22:21.491Z,4.00
2018-10-04T06:23:21.469Z,4.00
2018-10-04T06:24:21.446Z,4.00
2018-10-04T06:25:21.425Z,4.00
2018-10-04T06:26:21.425Z,4.00
2018-10-04T06:27:21.386Z,0.00
2018-10-04T06:28:21.365Z,4.00
2018-10-04T06:29:21.342Z,4.00
2018-10-04T06:30:21.319Z,4.00
2018-10-04T06:31:21.303Z,4.00
2018-10-04T06:32:21.279Z,4.00
2018-10-04T06:33:21.256Z,4.00
2018-10-04T06:34:21.241Z,4.00
2018-10-04T06:35:21.230Z,4.00
2018-10-04T06:36:21.195Z,4.00
2018-10-04T06:37:21.174Z,4.00
2018-10-04T06:38:21.152Z,4.00
2018-10-04T06:39:21.135Z,4.00
2018-10-04T06:40:21.113Z,4.00
2018-10-04T06:41:21.090Z,4.00
2018-10-04T06:42:21.067Z,4.00
2018-10-04T06:43:21.059Z,4.00
2018-10-04T06:44:21.025Z,4.00
2018-10-04T06:45:21.004Z,4.00
2018-10-04T06:46:20.984Z,4.00
2018-10-04T06:47:20.965Z,4.00
2018-10-04T06:48:20.941Z,4.00
2018-10-04T06:49:20.920Z,4.00
2018-10-04T06:50:20.962Z,4.00
2018-10-04T06:51:20.879Z,4.00
2018-10-04T06:52:20.857Z,4.00
2018-10-04T06:53:20.836Z,4.00
2018-10-04T06:54:20.818Z,4.00
2018-10-04T06:55:20.794Z,4.00
2018-10-04T06:56:20.775Z,4.00
2018-10-04T06:57:20.754Z,4.00
2018-10-04T06:58:20.732Z,4.00
2018-10-04T06:59:20.710Z,8.00
2018-10-04T07:00:20.690Z,8.00
2018-10-04T07:01:20.667Z,8.00
2018-10-04T07:02:20.652Z,4.00
2018-10-04T07:03:20.628Z,8.00
2018-10-04T07:04:20.610Z,4.00
2018-10-04T07:05:20.585Z,8.00
2018-10-04T07:06:20.564Z,8.00
2018-10-04T07:07:20.549Z,8.00
2018-10-04T07:08:20.522Z,4.00
2018-10-04T07:09:20.501Z,8.00
2018-10-04T07:10:20.480Z,4.00
2018-10-04T07:11:20.460Z,8.00
2018-10-04T07:12:20.439Z,8.00
2018-10-04T07:13:20.417Z,8.00
2018-10-04T07:14:20.395Z,8.00
2018-10-04T07:15:20.379Z,8.00
2018-10-04T07:16:20.357Z,4.00
2018-10-04T07:17:20.333Z,4.00
2018-10-04T07:18:20.317Z,4.00
2018-10-04T07:19:20.292Z,4.00
2018-10-04T07:20:20.349Z,4.00
2018-10-04T07:21:20.250Z,4.00
2018-10-04T07:22:20.227Z,4.00
2018-10-04T07:23:20.208Z,8.00
2018-10-04T07:24:20.187Z,8.00
2018-10-04T07:25:20.167Z,8.00
2018-10-04T07:26:20.145Z,4.00
2018-10-04T07:27:20.125Z,4.00
2018-10-04T07:28:20.105Z,4.00
2018-10-04T07:29:20.081Z,4.00
2018-10-04T07:30:20.062Z,4.00
2018-10-04T07:31:20.044Z,4.00
2018-10-04T07:32:20.019Z,8.00
2018-10-04T07:33:20.003Z,8.00
2018-10-04T07:34:19.977Z,4.00
2018-10-04T07:35:19.956Z,4.00
2018-10-04T07:36:19.947Z,4.00
2018-10-04T07:37:19.925Z,8.00
2018-10-04T07:38:19.894Z,4.00
2018-10-04T07:39:19.876Z,8.00
2018-10-04T07:40:19.853Z,8.00
2018-10-04T07:41:19.829Z,8.00
2018-10-04T07:42:19.859Z,8.00
2018-10-04T07:43:19.792Z,8.00
2018-10-04T07:44:19.770Z,4.00
2018-10-04T07:45:19.752Z,4.00
2018-10-04T07:46:19.732Z,8.00
2018-10-04T07:47:19.708Z,4.00
2018-10-04T07:48:19.690Z,8.00
2018-10-04T07:49:19.664Z,8.00
2018-10-04T07:50:19.735Z,8.00
2018-10-04T07:51:19.623Z,8.00
2018-10-04T07:52:19.601Z,8.00
2018-10-04T07:53:19.581Z,8.00
2018-10-04T07:54:19.561Z,8.00
2018-10-04T07:55:19.549Z,8.00
2018-10-04T07:56:19.519Z,8.00
2018-10-04T07:57:19.499Z,8.00
2018-10-04T07:58:19.479Z,8.00
2018-10-04T07:59:19.456Z,8.00
2018-10-04T08:00:19.519Z,4.00
2018-10-04T08:01:19.444Z,4.00
2018-10-04T08:02:19.393Z,4.00
2018-10-04T08:03:19.380Z,4.00
2018-10-04T08:04:19.352Z,8.00
2018-10-04T08:05:19.332Z,8.00
2018-10-04T08:06:19.437Z,8.00
2018-10-04T08:07:19.292Z,8.00
2018-10-04T08:08:19.268Z,12.00
2018-10-04T08:09:19.248Z,12.00
2018-10-04T08:10:19.228Z,12.00
2018-10-04T08:11:19.206Z,12.00
2018-10-04T08:12:19.187Z,12.00
2018-10-04T08:13:19.169Z,12.00
2018-10-04T08:14:19.146Z,8.00
2018-10-04T08:15:19.187Z,12.00
2018-10-04T08:16:19.104Z,12.00
2018-10-04T08:17:19.082Z,16.00
2018-10-04T08:18:19.062Z,12.00
2018-10-04T08:19:19.041Z,12.00
2018-10-04T08:20:19.020Z,16.00
2018-10-04T08:21:18.998Z,16.00
2018-10-04T08:22:18.976Z,16.00
2018-10-04T08:23:18.956Z,16.00
2018-10-04T08:24:18.936Z,16.00
2018-10-04T08:25:18.916Z,20.00
2018-10-04T08:26:18.895Z,16.00
2018-10-04T08:27:18.878Z,20.00
2018-10-04T08:28:18.853Z,20.00
2018-10-04T08:29:18.832Z,16.00
2018-10-04T08:30:18.812Z,20.00
2018-10-04T08:31:18.790Z,16.00
2018-10-04T08:32:18.770Z,20.00
2018-10-04T08:33:18.751Z,20.00
2018-10-04T08:34:18.729Z,20.00
2018-10-04T08:35:18.791Z,20.00
2018-10-04T08:36:18.691Z,20.00
2018-10-04T08:37:18.670Z,24.00
2018-10-04T08:38:18.645Z,20.00
2018-10-04T08:39:18.629Z,20.00
2018-10-04T08:40:18.613Z,20.00
2018-10-04T08:41:18.584Z,20.00
2018-10-04T08:42:18.567Z,20.00
2018-10-04T08:43:18.544Z,20.00
2018-10-04T08:44:18.524Z,24.00
2018-10-04T08:45:18.504Z,20.00
2018-10-04T08:46:18.481Z,20.00
2018-10-04T08:47:18.460Z,20.00
2018-10-04T08:48:18.478Z,20.00
2018-10-04T08:49:18.418Z,20.00
2018-10-04T08:50:18.398Z,20.00
2018-10-04T08:51:18.385Z,24.00
2018-10-04T08:52:18.367Z,24.00
2018-10-04T08:53:18.335Z,20.00
2018-10-04T08:54:18.372Z,20.00
2018-10-04T08:55:18.294Z,20.00
2018-10-04T08:56:18.275Z,20.00
2018-10-04T08:57:18.252Z,20.00
2018-10-04T08:58:18.234Z,20.00
2018-10-04T08:59:18.213Z,20.00
2018-10-04T09:00:18.192Z,20.00
2018-10-04T09:01:18.171Z,24.00
2018-10-04T09:02:18.153Z,24.00
2018-10-04T09:03:18.134Z,24.00
2018-10-04T09:04:18.110Z,24.00
2018-10-04T09:05:18.088Z,24.00
2018-10-04T09:06:18.070Z,20.00
2018-10-04T09:07:18.076Z,16.00
2018-10-04T09:08:18.026Z,16.00
2018-10-04T09:09:18.005Z,20.00
2018-10-04T09:10:17.988Z,20.00
2018-10-04T09:11:17.964Z,24.00
2018-10-04T09:12:17.944Z,20.00
2018-10-04T09:13:17.926Z,24.00
2018-10-04T09:14:17.903Z,20.00
2018-10-04T09:15:17.883Z,20.00
2018-10-04T09:16:17.864Z,24.00
2018-10-04T09:17:17.844Z,24.00
2018-10-04T09:18:17.821Z,24.00
2018-10-04T09:19:17.801Z,28.00
2018-10-04T09:20:17.783Z,28.00
2018-10-04T09:21:17.761Z,28.00
2018-10-04T09:22:17.743Z,28.00
2018-10-04T09:23:17.721Z,24.00
2018-10-04T09:24:17.701Z,24.00
2018-10-04T09:25:17.677Z,28.00
2018-10-04T09:26:17.710Z,28.00
2018-10-04T09:27:17.640Z,32.00
2018-10-04T09:28:17.616Z,28.00
2018-10-04T09:29:17.596Z,28.00
2018-10-04T09:30:17.577Z,28.00
2018-10-04T09:31:17.558Z,24.00
2018-10-04T09:32:17.536Z,24.00
2018-10-04T09:33:17.515Z,24.00
2018-10-04T09:34:17.494Z,24.00
2018-10-04T09:35:17.477Z,24.00
2018-10-04T09:36:17.454Z,20.00
2018-10-04T09:37:17.433Z,24.00
2018-10-04T09:38:17.414Z,24.00
2018-10-04T09:39:17.395Z,20.00
2018-10-04T09:40:17.375Z,20.00
2018-10-04T09:41:17.401Z,20.00
2018-10-04T09:42:17.333Z,20.00
2018-10-04T09:43:17.313Z,20.00
2018-10-04T09:44:17.289Z,20.00
2018-10-04T09:45:17.274Z,20.00
2018-10-04T09:46:17.287Z,20.00
2018-10-04T09:47:17.228Z,24.00
2018-10-04T09:48:17.212Z,24.00
2018-10-04T09:49:17.189Z,24.00
2018-10-04T09:50:17.167Z,28.00
2018-10-04T09:51:17.146Z,28.00
2018-10-04T09:52:17.128Z,28.00
2018-10-04T09:53:17.166Z,32.00
2018-10-04T09:54:17.085Z,32.00
2018-10-04T09:55:17.069Z,28.00
2018-10-04T09:56:17.047Z,28.00
2018-10-04T09:57:17.024Z,28.00
2018-10-04T09:58:17.004Z,28.00
2018-10-04T09:59:16.987Z,32.00
2018-10-04T10:00:16.967Z,28.00
2018-10-04T10:01:16.944Z,28.00
2018-10-04T10:02:16.924Z,28.00
2018-10-04T10:03:16.902Z,24.00
2018-10-04T10:04:16.887Z,24.00
2018-10-04T10:05:16.890Z,28.00
2018-10-04T10:06:16.842Z,24.00
2018-10-04T10:07:16.824Z,28.00
2018-10-04T10:08:16.802Z,32.00
2018-10-04T10:09:16.781Z,36.00
2018-10-04T10:10:16.763Z,32.00
2018-10-04T10:11:16.747Z,24.00
2018-10-04T10:12:16.723Z,28.00
2018-10-04T10:13:16.700Z,28.00
2018-10-04T10:14:16.684Z,24.00
2018-10-04T10:15:16.668Z,24.00
2018-10-04T10:16:16.642Z,28.00
2018-10-04T10:17:16.619Z,28.00
2018-10-04T10:18:16.600Z,24.00
2018-10-04T10:19:16.583Z,28.00
2018-10-04T10:20:16.559Z,28.00
2018-10-04T10:21:16.540Z,24.00
2018-10-04T10:22:16.520Z,24.00
2018-10-04T10:23:16.501Z,24.00
2018-10-04T10:24:16.479Z,24.00
2018-10-04T10:25:16.456Z,24.00
2018-10-04T10:26:16.438Z,24.00
2018-10-04T10:27:16.462Z,24.00
2018-10-04T10:28:16.398Z,24.00
2018-10-04T10:29:16.376Z,28.00
2018-10-04T10:30:16.357Z,28.00
2018-10-04T10:31:16.336Z,32.00
2018-10-04T10:32:16.319Z,32.00
2018-10-04T10:33:16.297Z,36.00
2018-10-04T10:34:16.276Z,36.00
2018-10-04T10:35:16.256Z,40.00
2018-10-04T10:36:16.237Z,44.00
2018-10-04T10:37:16.222Z,40.00
2018-10-04T10:38:16.197Z,40.00
2018-10-04T10:39:16.176Z,44.00
2018-10-04T10:40:16.351Z,44.00
2018-10-04T10:41:16.137Z,44.00
2018-10-04T10:42:16.116Z,44.00
2018-10-04T10:43:16.099Z,40.00
2018-10-04T10:44:16.075Z,40.00
2018-10-04T10:45:16.060Z,40.00
2018-10-04T10:46:16.063Z,40.00
2018-10-04T10:47:16.015Z,44.00
2018-10-04T10:48:15.997Z,44.00
2018-10-04T10:49:15.975Z,44.00
2018-10-04T10:50:15.962Z,44.00
2018-10-04T10:51:15.937Z,44.00
2018-10-04T10:52:15.926Z,44.00
2018-10-04T10:53:15.922Z,44.00
2018-10-04T10:54:15.880Z,44.00
2018-10-04T10:55:15.857Z,48.00
2018-10-04T10:56:15.836Z,48.00
2018-10-04T10:57:15.816Z,44.00
2018-10-04T10:58:15.801Z,48.00
2018-10-04T10:59:15.777Z,48.00
2018-10-04T11:00:15.756Z,44.00
2018-10-04T11:01:15.873Z,48.00
2018-10-04T11:02:15.718Z,44.00
2018-10-04T11:03:15.696Z,44.00
2018-10-04T11:04:15.676Z,44.00
2018-10-04T11:05:15.654Z,44.00
2018-10-04T11:06:15.639Z,44.00
2018-10-04T11:07:15.616Z,40.00
2018-10-04T11:08:15.647Z,44.00
2018-10-04T11:09:15.577Z,40.00
2018-10-04T11:10:15.557Z,36.00
2018-10-04T11:11:15.539Z,36.00
2018-10-04T11:12:15.518Z,36.00
2018-10-04T11:13:15.496Z,36.00
2018-10-04T11:14:15.483Z,36.00
2018-10-04T11:15:15.463Z,36.00
2018-10-04T11:16:15.439Z,40.00
2018-10-04T11:17:15.416Z,40.00
2018-10-04T11:18:15.397Z,44.00
2018-10-04T11:19:15.389Z,40.00
2018-10-04T11:20:15.360Z,40.00
2018-10-04T11:21:15.337Z,40.00
2018-10-04T11:22:15.319Z,40.00
2018-10-04T11:23:15.304Z,36.00
2018-10-04T11:24:15.290Z,40.00
2018-10-04T11:25:15.258Z,40.00
2018-10-04T11:26:15.238Z,44.00
2018-10-04T11:27:15.219Z,44.00
2018-10-04T11:28:15.200Z,40.00
2018-10-04T11:29:15.230Z,44.00
2018-10-04T11:30:15.161Z,40.00
2018-10-04T11:31:15.140Z,40.00
2018-10-04T11:32:15.121Z,40.00
2018-10-04T11:33:15.169Z,40.00
2018-10-04T11:34:15.085Z,44.00
2018-10-04T11:35:15.063Z,44.00
2018-10-04T11:36:15.047Z,44.00
2018-10-04T11:37:15.022Z,44.00
2018-10-04T11:38:15.001Z,44.00
2018-10-04T11:39:15.009Z,52.00
2018-10-04T11:40:14.962Z,56.00
2018-10-04T11:41:14.954Z,64.00
2018-10-04T11:42:14.922Z,68.00
2018-10-04T11:43:14.904Z,76.00
2018-10-04T11:44:14.884Z,80.00
2018-10-04T11:45:14.865Z,72.00
2018-10-04T11:46:14.844Z,76.00
2018-10-04T11:47:14.826Z,92.00
2018-10-04T11:48:14.807Z,100.00
2018-10-04T11:49:14.809Z,96.00
2018-10-04T11:50:14.801Z,88.00
2018-10-04T11:51:14.761Z,84.00
2018-10-04T11:52:14.739Z,80.00
2018-10-04T11:53:14.708Z,84.00
2018-10-04T11:54:14.689Z,88.00
2018-10-04T11:55:14.668Z,84.00
2018-10-04T11:56:14.650Z,76.00
2018-10-04T11:57:14.631Z,72.00
2018-10-04T11:58:14.612Z,72.00
2018-10-04T11:59:14.592Z,76.00
2018-10-04T12:00:14.574Z,80.00
2018-10-04T12:01:14.653Z,80.00
2018-10-04T12:02:14.535Z,76.00
2018-10-04T12:03:14.517Z,80.00
2018-10-04T12:04:14.495Z,84.00
2018-10-04T12:05:14.474Z,84.00
2018-10-04T12:06:14.455Z,88.00
2018-10-04T12:07:14.505Z,100.00
2018-10-04T12:08:14.417Z,104.00
2018-10-04T12:09:14.396Z,108.00
2018-10-04T12:10:14.381Z,104.00
2018-10-04T12:11:14.359Z,108.00
2018-10-04T12:12:14.349Z,104.00
2018-10-04T12:13:14.387Z,100.00
2018-10-04T12:14:14.302Z,96.00
2018-10-04T12:15:14.284Z,96.00
2018-10-04T12:16:14.294Z,96.00
2018-10-04T12:17:14.242Z,96.00
2018-10-04T12:18:14.224Z,96.00
2018-10-04T12:19:14.205Z,96.00
2018-10-04T12:20:14.186Z,92.00
2018-10-04T12:21:14.166Z,92.00
2018-10-04T12:22:14.148Z,96.00
2018-10-04T12:23:14.126Z,92.00
2018-10-04T12:24:14.111Z,88.00
2018-10-04T12:25:14.097Z,92.00
2018-10-04T12:26:14.070Z,88.00
2018-10-04T12:27:14.050Z,88.00
2018-10-04T12:28:14.034Z,88.00
2018-10-04T12:29:14.012Z,88.00
2018-10-04T12:30:13.993Z,84.00
2018-10-04T12:31:14.082Z,80.00
2018-10-04T12:32:13.955Z,72.00
2018-10-04T12:33:13.946Z,68.00
2018-10-04T12:34:13.917Z,72.00
2018-10-04T12:35:13.898Z,76.00
2018-10-04T12:36:13.893Z,76.00
2018-10-04T12:37:13.859Z,72.00
2018-10-04T12:38:13.842Z,68.00
2018-10-04T12:39:13.828Z,64.00
2018-10-04T12:40:13.802Z,72.00
2018-10-04T12:41:13.781Z,84.00
2018-10-04T12:42:13.766Z,96.00
2018-10-04T12:43:13.749Z,104.00
2018-10-04T12:44:13.785Z,96.00
2018-10-04T12:45:13.709Z,92.00
2018-10-04T12:46:13.690Z,88.00
2018-10-04T12:47:13.668Z,88.00
2018-10-04T12:48:13.652Z,92.00
2018-10-04T12:49:13.631Z,88.00
2018-10-04T12:50:13.613Z,88.00
2018-10-04T12:51:13.596Z,96.00
2018-10-04T12:52:13.578Z,104.00
2018-10-04T12:53:13.556Z,112.00
2018-10-04T12:54:13.597Z,116.00
2018-10-04T12:55:13.519Z,120.00
2018-10-04T12:56:13.500Z,120.00
2018-10-04T12:57:13.485Z,128.00
2018-10-04T12:58:13.466Z,128.00
2018-10-04T12:59:13.444Z,128.00
2018-10-04T13:00:13.425Z,136.00
2018-10-04T13:01:13.405Z,128.00
2018-10-04T13:02:13.385Z,144.00
2018-10-04T13:03:13.371Z,148.00
2018-10-04T13:04:13.351Z,132.00
2018-10-04T13:05:13.331Z,132.00
2018-10-04T13:06:13.312Z,120.00
2018-10-04T13:07:13.382Z,124.00